マンチェスター の空港の天気 - METARとTAF

マンチェスター空港 ( EGCC / MAN ) - イギリス マンチェスター
飛行場実況気象(Metar)
観測時間08/13 22:20 BST (08/13 21:20 UTC)
風向・風速東北東 3m/s
視程10km以上
天気現象
なし
気温23℃
湿度57%
気圧1013hPa
METAREGCC 132120Z AUTO 07006KT 9999 NCD 23/14 Q1013
過去の天気等 Google飛行場航空写真 Wunderground天気予報

過去48時間のMETAR

飛行場予報(TAF)
発表時間: 8/13 17:55 BST (8/13 16:55 UTC)
予報対象時間: 13日19時 BST ~ 15日1時 BST
風向・風速東 2m/s
視程10km以上
なし
TAF EGCC 131655Z 1318/1424 09004KT CAVOK